createdAt,value
2017-04-28T00:00:53.207Z,935.5
2017-04-28T00:02:01.322Z,935.5
2017-04-28T00:03:09.295Z,935.6
2017-04-28T00:04:17.387Z,935.6
2017-04-28T00:05:25.585Z,935.6
2017-04-28T00:06:33.546Z,935.6
2017-04-28T00:07:41.702Z,935.6
2017-04-28T00:08:49.732Z,935.6
2017-04-28T00:09:57.809Z,935.6
2017-04-28T00:11:05.900Z,935.5
2017-04-28T00:12:13.995Z,935.5
2017-04-28T00:13:22.183Z,935.5
2017-04-28T00:14:30.155Z,935.6
2017-04-28T00:15:38.282Z,935.6
2017-04-28T00:16:46.325Z,935.6
2017-04-28T00:17:54.417Z,935.6
2017-04-28T00:19:02.557Z,935.6
2017-04-28T00:20:10.590Z,935.6
2017-04-28T00:21:18.800Z,935.6
2017-04-28T00:22:26.761Z,935.6
2017-04-28T00:23:34.862Z,935.6
2017-04-28T00:24:42.994Z,935.6
2017-04-28T00:25:51.027Z,935.6
2017-04-28T00:26:59.192Z,935.5
2017-04-28T00:28:07.195Z,935.5
2017-04-28T00:29:15.286Z,935.5
2017-04-28T00:30:23.431Z,935.5
2017-04-28T00:31:31.466Z,935.5
2017-04-28T00:32:39.543Z,935.5
2017-04-28T00:33:47.630Z,935.4
2017-04-28T00:34:55.719Z,935.5
2017-04-28T00:36:03.926Z,935.5
2017-04-28T00:37:12.083Z,935.5
2017-04-28T00:38:20.061Z,935.5
2017-04-28T00:39:28.068Z,935.5
2017-04-28T00:40:36.155Z,935.5
2017-04-28T00:41:44.295Z,935.5
2017-04-28T00:42:52.317Z,935.5
2017-04-28T00:44:00.404Z,935.5
2017-04-28T00:45:08.488Z,935.5
2017-04-28T00:46:16.572Z,935.5
2017-04-28T00:47:24.782Z,935.4
2017-04-28T00:48:32.886Z,935.4
2017-04-28T00:49:40.837Z,935.4
2017-04-28T00:50:48.926Z,935.4
2017-04-28T00:51:57.011Z,935.4
2017-04-28T00:53:05.218Z,935.5
2017-04-28T00:54:13.182Z,935.4
2017-04-28T00:55:21.267Z,935.5
2017-04-28T00:56:29.361Z,935.5
2017-04-28T00:57:37.449Z,935.5
2017-04-28T00:58:45.679Z,935.5
2017-04-28T00:59:53.695Z,935.5
2017-04-28T01:01:01.702Z,935.4
2017-04-28T01:02:09.787Z,935.5
2017-04-28T01:03:17.877Z,935.5
2017-04-28T01:04:26.084Z,935.5
2017-04-28T01:05:34.048Z,935.5
2017-04-28T01:06:42.138Z,935.5
2017-04-28T01:07:50.222Z,935.5
2017-04-28T01:08:58.366Z,935.5
2017-04-28T01:10:06.571Z,935.5
2017-04-28T01:11:14.478Z,935.4
2017-04-28T01:12:22.567Z,935.4
2017-04-28T01:13:30.649Z,935.4
2017-04-28T01:14:38.740Z,935.4
2017-04-28T01:15:46.885Z,935.4
2017-04-28T01:16:54.918Z,935.4
2017-04-28T01:18:03.004Z,935.5
2017-04-28T01:19:11.450Z,935.5
2017-04-28T01:20:19.182Z,935.5
2017-04-28T01:21:28.771Z,935.5
2017-04-28T01:22:35.622Z,935.5
2017-04-28T01:23:43.435Z,935.5
2017-04-28T01:24:51.643Z,935.5
2017-04-28T01:25:59.688Z,935.4
2017-04-28T01:27:07.817Z,935.4
2017-04-28T01:28:15.779Z,935.5
2017-04-28T01:29:23.864Z,935.4
2017-04-28T01:30:31.955Z,935.4
2017-04-28T01:31:40.038Z,935.4
2017-04-28T01:32:48.245Z,935.4
2017-04-28T01:33:56.207Z,935.4
2017-04-28T01:35:04.299Z,935.3
2017-04-28T01:36:12.478Z,935.3
2017-04-28T01:37:20.466Z,935.2
2017-04-28T01:38:28.675Z,935.2
2017-04-28T01:39:36.642Z,935.2
2017-04-28T01:40:44.844Z,935.2
2017-04-28T01:41:52.828Z,935.2
2017-04-28T01:43:00.901Z,935.2
2017-04-28T01:44:09.107Z,935.2
2017-04-28T01:45:17.074Z,935.2
2017-04-28T01:46:25.165Z,935.2
2017-04-28T01:47:33.251Z,935.2
2017-04-28T01:48:41.336Z,935.2
2017-04-28T01:49:49.542Z,935.1
2017-04-28T01:50:57.509Z,935.1
2017-04-28T01:52:05.596Z,935.0
2017-04-28T01:53:13.680Z,935.1
2017-04-28T01:54:21.768Z,935.0
2017-04-28T01:55:29.973Z,935.1
2017-04-28T01:56:38.060Z,935.0
2017-04-28T01:57:46.099Z,935.0
2017-04-28T01:58:54.173Z,935.0
2017-04-28T02:00:02.193Z,935.1
2017-04-28T02:01:10.401Z,935.0
2017-04-28T02:02:18.372Z,935.0
2017-04-28T02:03:26.455Z,935.0
2017-04-28T02:04:34.540Z,935.1
2017-04-28T02:05:42.628Z,935.1
2017-04-28T02:06:50.834Z,935.0
2017-04-28T02:07:58.801Z,935.0
2017-04-28T02:09:06.977Z,935.0
2017-04-28T02:10:14.969Z,935.0
2017-04-28T02:11:23.054Z,935.1
2017-04-28T02:12:31.259Z,935.0
2017-04-28T02:13:39.231Z,935.1
2017-04-28T02:14:47.314Z,935.0
2017-04-28T02:15:55.397Z,935.0
2017-04-28T02:17:03.483Z,935.1
2017-04-28T02:18:11.691Z,935.1
2017-04-28T02:19:19.741Z,935.1
2017-04-28T02:20:27.839Z,935.0
2017-04-28T02:21:35.866Z,935.1
2017-04-28T02:22:43.916Z,935.0
2017-04-28T02:23:52.121Z,935.1
2017-04-28T02:25:00.088Z,935.0
2017-04-28T02:26:08.179Z,935.0
2017-04-28T02:27:16.270Z,935.0
2017-04-28T02:28:24.464Z,935.1
2017-04-28T02:29:32.557Z,935.0
2017-04-28T02:30:40.590Z,935.0
2017-04-28T02:31:48.606Z,935.0
2017-04-28T02:32:56.687Z,935.0
2017-04-28T02:34:04.778Z,935.0
2017-04-28T02:35:12.983Z,935.0
2017-04-28T02:36:20.947Z,935.0
2017-04-28T02:37:29.038Z,935.0
2017-04-28T02:38:37.123Z,935.0
2017-04-28T02:39:45.205Z,935.1
2017-04-28T02:40:53.415Z,935.1
2017-04-28T02:42:01.403Z,935.1
2017-04-28T02:43:09.470Z,935.1
2017-04-28T02:44:17.680Z,935.1
2017-04-28T02:45:25.781Z,935.1
2017-04-28T02:46:33.962Z,935.1
2017-04-28T02:47:41.816Z,935.1
2017-04-28T02:48:49.907Z,935.2
2017-04-28T02:49:57.994Z,935.1
2017-04-28T02:51:06.080Z,935.1
2017-04-28T02:52:14.282Z,935.1
2017-04-28T02:53:22.251Z,935.1
2017-04-28T02:54:30.337Z,935.2
2017-04-28T02:55:38.423Z,935.2
2017-04-28T02:56:46.554Z,935.2
2017-04-28T02:57:54.719Z,935.1
2017-04-28T02:59:02.682Z,935.1
2017-04-28T03:00:10.884Z,935.1
2017-04-28T03:01:18.857Z,935.1
2017-04-28T03:02:26.947Z,935.1
2017-04-28T03:03:35.145Z,935.2
2017-04-28T03:04:43.112Z,935.1
2017-04-28T03:05:51.197Z,935.2
2017-04-28T03:06:59.283Z,935.1
2017-04-28T03:08:07.365Z,935.1
2017-04-28T03:09:15.574Z,935.1
2017-04-28T03:10:23.539Z,935.1
2017-04-28T03:11:31.622Z,935.1
2017-04-28T03:12:39.712Z,935.1
2017-04-28T03:13:47.796Z,935.1
2017-04-28T03:14:56.003Z,935.1
2017-04-28T03:16:04.088Z,935.1
2017-04-28T03:17:12.058Z,935.1
2017-04-28T03:18:20.174Z,935.0
2017-04-28T03:19:28.232Z,935.0
2017-04-28T03:20:36.434Z,935.0
2017-04-28T03:21:44.399Z,935.0
2017-04-28T03:22:52.484Z,935.0
2017-04-28T03:24:00.567Z,934.9
2017-04-28T03:25:08.658Z,934.9
2017-04-28T03:26:16.859Z,934.9
2017-04-28T03:27:24.826Z,934.9
2017-04-28T03:28:32.915Z,934.9
2017-04-28T03:29:41.024Z,934.9
2017-04-28T03:30:49.091Z,934.9
2017-04-28T03:31:57.292Z,934.9
2017-04-28T03:33:05.266Z,934.8
2017-04-28T03:34:13.498Z,934.8
2017-04-28T03:35:21.431Z,934.9
2017-04-28T03:36:29.521Z,934.8
2017-04-28T03:37:37.730Z,934.8
2017-04-28T03:38:45.690Z,934.8
2017-04-28T03:39:53.796Z,934.8
2017-04-28T03:41:01.879Z,934.8
2017-04-28T03:42:09.957Z,934.8
2017-04-28T03:43:18.160Z,934.8
2017-04-28T03:44:26.260Z,934.8
2017-04-28T03:45:34.219Z,934.9
2017-04-28T03:46:42.299Z,934.8
2017-04-28T03:47:50.500Z,934.8
2017-04-28T03:48:58.590Z,934.8
2017-04-28T03:50:06.551Z,934.9
2017-04-28T03:51:14.637Z,934.8
2017-04-28T03:52:22.728Z,934.9
2017-04-28T03:53:30.812Z,934.9
2017-04-28T03:54:39.015Z,934.9
2017-04-28T03:55:47.038Z,934.9
2017-04-28T03:56:55.069Z,934.9
2017-04-28T03:58:03.154Z,934.9
2017-04-28T03:59:11.237Z,934.9
2017-04-28T04:00:19.639Z,934.9
2017-04-28T04:01:27.409Z,934.9
2017-04-28T04:02:35.494Z,934.9
2017-04-28T04:03:43.703Z,934.9
2017-04-28T04:04:51.674Z,934.9
2017-04-28T04:05:59.885Z,934.9
2017-04-28T04:07:07.835Z,934.9
2017-04-28T04:08:15.922Z,935.0
2017-04-28T04:09:24.008Z,934.9
2017-04-28T04:10:32.116Z,934.9
2017-04-28T04:11:40.313Z,934.9
2017-04-28T04:12:48.265Z,934.9
2017-04-28T04:13:56.355Z,935.0
2017-04-28T04:15:04.440Z,934.9
2017-04-28T04:16:12.529Z,935.0
2017-04-28T04:17:20.732Z,934.9
2017-04-28T04:18:28.697Z,934.9
2017-04-28T04:19:36.904Z,934.9
2017-04-28T04:20:44.871Z,934.9
2017-04-28T04:21:53.059Z,935.0
2017-04-28T04:23:01.159Z,935.0
2017-04-28T04:24:09.132Z,935.0
2017-04-28T04:25:17.209Z,935.0
2017-04-28T04:26:25.296Z,935.0
2017-04-28T04:27:33.500Z,935.0
2017-04-28T04:28:42.025Z,935.0
2017-04-28T04:29:49.565Z,935.0
2017-04-28T04:30:57.654Z,935.0
2017-04-28T04:32:05.742Z,935.0
2017-04-28T04:33:13.968Z,935.0
2017-04-28T04:34:22.029Z,935.0
2017-04-28T04:35:30.353Z,935.0
2017-04-28T04:36:38.134Z,935.0
2017-04-28T04:37:46.227Z,935.0
2017-04-28T04:38:54.364Z,935.0
2017-04-28T04:40:02.462Z,935.0
2017-04-28T04:41:10.429Z,935.0
2017-04-28T04:42:18.512Z,935.0
2017-04-28T04:43:26.602Z,935.0
2017-04-28T04:44:34.781Z,935.0
2017-04-28T04:45:48.469Z,935.0
2017-04-28T04:46:50.852Z,935.1
2017-04-28T04:47:59.062Z,935.1
2017-04-28T04:49:07.023Z,935.0
2017-04-28T04:50:15.128Z,935.1
2017-04-28T04:51:23.321Z,935.1
2017-04-28T04:52:31.289Z,935.0
2017-04-28T04:53:39.496Z,935.1
2017-04-28T04:54:47.644Z,935.0
2017-04-28T04:55:55.545Z,935.0
2017-04-28T04:57:03.628Z,935.0
2017-04-28T04:58:11.712Z,935.0
2017-04-28T04:59:19.922Z,935.0
2017-04-28T05:00:27.893Z,935.0
2017-04-28T05:01:35.967Z,935.1
2017-04-28T05:02:44.054Z,935.0
2017-04-28T05:03:52.143Z,935.0
2017-04-28T05:05:00.297Z,935.0
2017-04-28T05:06:08.306Z,935.0
2017-04-28T05:07:16.519Z,935.0
2017-04-28T05:08:24.481Z,935.1
2017-04-28T05:09:32.568Z,935.0
2017-04-28T05:10:40.770Z,935.0
2017-04-28T05:11:48.742Z,935.1
2017-04-28T05:12:56.825Z,935.0
2017-04-28T05:14:04.911Z,935.1
2017-04-28T05:15:12.998Z,935.0
2017-04-28T05:16:21.223Z,935.0
2017-04-28T05:17:29.164Z,935.0
2017-04-28T05:18:37.252Z,935.0
2017-04-28T05:19:45.339Z,935.0
2017-04-28T05:20:53.421Z,935.0
2017-04-28T05:22:01.623Z,935.1
2017-04-28T05:23:09.653Z,935.1
2017-04-28T05:24:17.680Z,935.1
2017-04-28T05:25:25.762Z,935.1
2017-04-28T05:26:33.882Z,935.0
2017-04-28T05:27:42.085Z,935.0
2017-04-28T05:28:50.022Z,935.0
2017-04-28T05:29:58.109Z,935.0
2017-04-28T05:31:06.289Z,935.0
2017-04-28T05:32:14.453Z,935.0
2017-04-28T05:33:22.480Z,935.0
2017-04-28T05:34:30.446Z,935.0
2017-04-28T05:35:38.534Z,935.1
2017-04-28T05:36:46.614Z,935.0
2017-04-28T05:37:54.729Z,935.1
2017-04-28T05:39:02.905Z,935.1
2017-04-28T05:40:10.877Z,935.1
2017-04-28T05:41:18.960Z,935.1
2017-04-28T05:42:27.045Z,935.1
2017-04-28T05:43:35.133Z,935.1
2017-04-28T05:44:43.355Z,935.1
2017-04-28T05:45:51.300Z,935.1
2017-04-28T05:46:59.388Z,935.1
2017-04-28T05:48:07.545Z,935.1
2017-04-28T05:49:15.607Z,935.1
2017-04-28T05:50:23.702Z,935.1
2017-04-28T05:51:31.737Z,935.2
2017-04-28T05:52:39.815Z,935.1
2017-04-28T05:53:48.083Z,935.1
2017-04-28T05:54:56.108Z,935.2
2017-04-28T05:56:04.192Z,935.2
2017-04-28T05:57:12.153Z,935.2
2017-04-28T05:58:20.241Z,935.1
2017-04-28T05:59:28.328Z,935.2
2017-04-28T06:00:36.408Z,935.2
2017-04-28T06:01:44.554Z,935.2
2017-04-28T06:02:52.582Z,935.2
2017-04-28T06:04:00.668Z,935.2
2017-04-28T06:05:08.755Z,935.2
2017-04-28T06:06:16.839Z,935.2
2017-04-28T06:07:25.043Z,935.3
2017-04-28T06:08:33.007Z,935.3
2017-04-28T06:09:41.088Z,935.3
2017-04-28T06:10:49.235Z,935.3
2017-04-28T06:11:57.265Z,935.3
2017-04-28T06:13:05.469Z,935.3
2017-04-28T06:14:13.435Z,935.3
2017-04-28T06:15:21.520Z,935.4
2017-04-28T06:16:29.601Z,935.3
2017-04-28T06:17:37.694Z,935.4
2017-04-28T06:18:45.833Z,935.4
2017-04-28T06:19:53.860Z,935.4
2017-04-28T06:21:02.001Z,935.4
2017-04-28T06:22:10.033Z,935.4
2017-04-28T06:23:18.118Z,935.4
2017-04-28T06:24:26.321Z,935.4
2017-04-28T06:25:34.494Z,935.5
2017-04-28T06:26:42.617Z,935.4
2017-04-28T06:27:50.458Z,935.5
2017-04-28T06:28:58.543Z,935.4
2017-04-28T06:30:06.752Z,935.5
2017-04-28T06:31:14.713Z,935.5
2017-04-28T06:32:22.843Z,935.5
2017-04-28T06:33:30.887Z,935.5
2017-04-28T06:34:38.972Z,935.5
2017-04-28T06:35:47.201Z,935.5
2017-04-28T06:36:55.309Z,935.5
2017-04-28T06:38:03.229Z,935.5
2017-04-28T06:39:11.313Z,935.5
2017-04-28T06:40:19.396Z,935.5
2017-04-28T06:41:27.605Z,935.5
2017-04-28T06:42:35.688Z,935.5
2017-04-28T06:43:43.654Z,935.5
2017-04-28T06:44:51.733Z,935.5
2017-04-28T06:45:59.825Z,935.5
2017-04-28T06:47:08.083Z,935.6
2017-04-28T06:48:16.108Z,935.5
2017-04-28T06:49:24.087Z,935.6
2017-04-28T06:50:32.168Z,935.5
2017-04-28T06:51:40.257Z,935.5
2017-04-28T06:52:48.469Z,935.5
2017-04-28T06:53:56.433Z,935.6
2017-04-28T06:55:04.522Z,935.6
2017-04-28T06:56:12.606Z,935.6
2017-04-28T06:57:20.693Z,935.6
2017-04-28T06:58:29.047Z,935.6
2017-04-28T06:59:36.861Z,935.6
2017-04-28T07:00:44.948Z,935.7
2017-04-28T07:01:53.040Z,935.6
2017-04-28T07:03:01.123Z,935.7
2017-04-28T07:04:09.323Z,935.7
2017-04-28T07:05:17.292Z,935.7
2017-04-28T07:06:25.376Z,935.7
2017-04-28T07:07:33.462Z,935.7
2017-04-28T07:08:41.713Z,935.7
2017-04-28T07:09:49.902Z,935.7
2017-04-28T07:10:57.720Z,935.7
2017-04-28T07:12:05.801Z,935.8
2017-04-28T07:13:13.892Z,935.7
2017-04-28T07:14:22.133Z,935.7
2017-04-28T07:15:30.178Z,935.7
2017-04-28T07:16:38.147Z,935.7
2017-04-28T07:17:46.234Z,935.7
2017-04-28T07:18:54.324Z,935.8
2017-04-28T07:20:02.543Z,935.8
2017-04-28T07:21:10.544Z,935.8
2017-04-28T07:22:18.589Z,935.8
2017-04-28T07:23:26.662Z,935.9
2017-04-28T07:24:34.745Z,935.8
2017-04-28T07:25:42.835Z,935.8
2017-04-28T07:26:51.037Z,935.8
2017-04-28T07:27:59.007Z,935.9
2017-04-28T07:29:07.093Z,935.9
2017-04-28T07:30:15.243Z,935.9
2017-04-28T07:31:23.268Z,935.9
2017-04-28T07:32:31.472Z,935.9
2017-04-28T07:33:39.446Z,935.9
2017-04-28T07:34:47.525Z,935.9
2017-04-28T07:35:55.603Z,935.9
2017-04-28T07:37:03.693Z,935.9
2017-04-28T07:38:11.831Z,935.9
2017-04-28T07:39:19.862Z,935.9
2017-04-28T07:40:27.953Z,935.9
2017-04-28T07:41:36.081Z,936.0
2017-04-28T07:42:44.125Z,935.9
2017-04-28T07:43:52.326Z,936.0
2017-04-28T07:45:00.295Z,936.0
2017-04-28T07:46:08.448Z,935.9
2017-04-28T07:47:16.468Z,936.0
2017-04-28T07:48:24.550Z,936.0
2017-04-28T07:49:32.753Z,936.0
2017-04-28T07:50:40.716Z,936.0
2017-04-28T07:51:48.800Z,936.1
2017-04-28T07:52:56.911Z,936.0
2017-04-28T07:54:04.977Z,936.1
2017-04-28T07:55:13.118Z,936.1
2017-04-28T07:56:21.148Z,936.0
2017-04-28T07:57:29.304Z,936.0
2017-04-28T07:58:37.318Z,936.1
2017-04-28T07:59:45.404Z,936.0
2017-04-28T08:00:53.613Z,936.1
2017-04-28T08:02:01.688Z,936.0
2017-04-28T08:03:09.685Z,936.1
2017-04-28T08:04:17.770Z,936.0
2017-04-28T08:05:25.828Z,936.1
2017-04-28T08:06:34.032Z,936.0
2017-04-28T08:07:42.179Z,936.1
2017-04-28T08:08:50.275Z,936.1
2017-04-28T08:09:58.169Z,936.1
2017-04-28T08:11:06.251Z,936.1
2017-04-28T08:12:14.397Z,936.2
2017-04-28T08:13:22.426Z,936.2
2017-04-28T08:14:30.565Z,936.1
2017-04-28T08:15:38.593Z,936.2
2017-04-28T08:16:46.688Z,936.2
2017-04-28T08:17:54.893Z,936.2
2017-04-28T08:19:02.856Z,936.2
2017-04-28T08:20:10.943Z,936.2
2017-04-28T08:21:19.032Z,936.2
2017-04-28T08:22:27.111Z,936.2
2017-04-28T08:23:35.317Z,936.2
2017-04-28T08:24:43.304Z,936.2
2017-04-28T08:25:51.471Z,936.2
2017-04-28T08:26:59.454Z,936.3
2017-04-28T08:28:07.547Z,936.2
2017-04-28T08:29:15.687Z,936.2
2017-04-28T08:30:23.718Z,936.2
2017-04-28T08:31:31.800Z,936.3
2017-04-28T08:32:39.883Z,936.2
2017-04-28T08:33:48.090Z,936.3
2017-04-28T08:34:56.112Z,936.3
2017-04-28T08:36:04.264Z,936.3
2017-04-28T08:37:12.218Z,936.3
2017-04-28T08:38:20.305Z,936.4
2017-04-28T08:39:28.397Z,936.4
2017-04-28T08:40:36.602Z,936.4
2017-04-28T08:41:44.565Z,936.4
2017-04-28T08:42:52.647Z,936.4
2017-04-28T08:44:00.737Z,936.4
2017-04-28T08:45:08.827Z,936.4
2017-04-28T08:46:17.177Z,936.4
2017-04-28T08:47:25.136Z,936.4
2017-04-28T08:48:33.082Z,936.4
2017-04-28T08:49:41.229Z,936.4
2017-04-28T08:50:49.263Z,936.5
2017-04-28T08:51:57.466Z,936.4
2017-04-28T08:53:05.430Z,936.4
2017-04-28T08:54:13.512Z,936.4
2017-04-28T08:55:21.601Z,936.4
2017-04-28T08:56:29.688Z,936.4
2017-04-28T08:57:37.891Z,936.4
2017-04-28T08:58:45.856Z,936.4
2017-04-28T08:59:53.941Z,936.4
2017-04-28T09:01:02.022Z,936.4
2017-04-28T09:02:10.109Z,936.4
2017-04-28T09:03:20.212Z,936.4
2017-04-28T09:04:26.285Z,936.5
2017-04-28T09:05:34.428Z,936.5
2017-04-28T09:06:42.450Z,936.5
2017-04-28T09:07:50.627Z,936.5
2017-04-28T09:08:58.832Z,936.5
2017-04-28T09:10:06.709Z,936.5
2017-04-28T09:11:14.802Z,936.5
2017-04-28T09:12:22.937Z,936.6
2017-04-28T09:13:30.967Z,936.6
2017-04-28T09:14:39.176Z,936.6
2017-04-28T09:15:47.141Z,936.6
2017-04-28T09:16:55.229Z,936.7
2017-04-28T09:18:03.313Z,936.7
2017-04-28T09:19:11.542Z,936.7
2017-04-28T09:20:19.607Z,936.7
2017-04-28T09:21:27.630Z,936.7
2017-04-28T09:22:35.654Z,936.7
2017-04-28T09:23:43.743Z,936.7
2017-04-28T09:24:51.834Z,936.8
2017-04-28T09:26:00.044Z,936.7
2017-04-28T09:27:07.997Z,936.8
2017-04-28T09:28:16.082Z,936.7
2017-04-28T09:29:24.163Z,936.7
2017-04-28T09:30:32.311Z,936.7
2017-04-28T09:31:40.394Z,936.8
2017-04-28T09:32:48.443Z,936.7
2017-04-28T09:33:56.506Z,936.8
2017-04-28T09:35:04.595Z,936.8
2017-04-28T09:36:12.724Z,936.8
2017-04-28T09:37:20.880Z,936.8
2017-04-28T09:38:28.853Z,936.8
2017-04-28T09:39:36.933Z,936.9
2017-04-28T09:40:45.017Z,936.8
2017-04-28T09:41:53.098Z,936.8
2017-04-28T09:43:01.243Z,936.8
2017-04-28T09:44:09.274Z,936.8
2017-04-28T09:45:17.362Z,936.8
2017-04-28T09:46:25.445Z,936.8
2017-04-28T09:47:33.593Z,936.8
2017-04-28T09:48:41.732Z,936.8
2017-04-28T09:49:49.699Z,936.8
2017-04-28T09:50:57.786Z,936.8
2017-04-28T09:52:05.870Z,936.8
2017-04-28T09:53:14.008Z,936.8
2017-04-28T09:54:22.160Z,936.9
2017-04-28T09:55:30.253Z,936.8
2017-04-28T09:56:38.211Z,936.8
2017-04-28T09:57:46.311Z,936.8
2017-04-28T09:58:54.380Z,936.8
2017-04-28T10:00:02.588Z,936.9
2017-04-28T10:01:10.548Z,936.9
2017-04-28T10:02:18.640Z,936.9
2017-04-28T10:03:26.724Z,936.9
2017-04-28T10:04:34.804Z,936.9
2017-04-28T10:05:43.012Z,936.9
2017-04-28T10:06:50.980Z,936.9
2017-04-28T10:07:59.073Z,936.9
2017-04-28T10:09:07.283Z,936.9
2017-04-28T10:10:15.809Z,936.9
2017-04-28T10:11:23.396Z,936.9
2017-04-28T10:12:31.421Z,936.9
2017-04-28T10:13:39.687Z,936.9
2017-04-28T10:14:47.598Z,936.9
2017-04-28T10:15:55.681Z,936.9
2017-04-28T10:17:03.902Z,936.9
2017-04-28T10:18:12.269Z,936.9
2017-04-28T10:19:19.950Z,937.0
2017-04-28T10:20:28.030Z,937.0
2017-04-28T10:21:36.111Z,937.0
2017-04-28T10:22:44.326Z,937.0
2017-04-28T10:23:52.311Z,937.0
2017-04-28T10:25:00.593Z,937.0
2017-04-28T10:26:08.459Z,937.0
2017-04-28T10:27:16.545Z,937.0
2017-04-28T10:28:24.748Z,937.1
2017-04-28T10:29:32.724Z,937.1
2017-04-28T10:30:40.801Z,937.1
2017-04-28T10:31:48.886Z,937.1
2017-04-28T10:32:56.974Z,937.1
2017-04-28T10:34:05.111Z,937.1
2017-04-28T10:35:13.161Z,937.1
2017-04-28T10:36:21.223Z,937.1
2017-04-28T10:37:29.315Z,937.1
2017-04-28T10:38:37.402Z,937.1
2017-04-28T10:39:45.792Z,937.1
2017-04-28T10:40:53.624Z,937.1
2017-04-28T10:42:01.656Z,937.2
2017-04-28T10:43:09.742Z,937.1
2017-04-28T10:44:17.830Z,937.1
2017-04-28T10:45:26.073Z,937.2
2017-04-28T10:46:34.014Z,937.2
2017-04-28T10:47:42.081Z,937.1
2017-04-28T10:48:50.176Z,937.2
2017-04-28T10:49:58.462Z,937.2
2017-04-28T10:51:06.597Z,937.2
2017-04-28T10:52:14.430Z,937.2
2017-04-28T10:53:22.517Z,937.2
2017-04-28T10:54:30.603Z,937.2
2017-04-28T10:55:38.688Z,937.2
2017-04-28T10:56:46.957Z,937.2
2017-04-28T10:57:54.893Z,937.3
2017-04-28T10:59:02.942Z,937.3
2017-04-28T11:00:11.026Z,937.3
2017-04-28T11:01:19.311Z,937.3
2017-04-28T11:02:27.326Z,937.3
2017-04-28T11:03:35.572Z,937.3
2017-04-28T11:04:43.461Z,937.3
2017-04-28T11:05:52.094Z,937.3
2017-04-28T11:06:59.704Z,937.4
2017-04-28T11:08:07.825Z,937.3
2017-04-28T11:09:15.714Z,937.4
2017-04-28T11:10:23.810Z,937.4
2017-04-28T11:11:31.886Z,937.4
2017-04-28T11:12:40.093Z,937.4
2017-04-28T11:13:48.117Z,937.4
2017-04-28T11:14:56.147Z,937.4
2017-04-28T11:16:04.231Z,937.4
2017-04-28T11:17:12.317Z,937.4
2017-04-28T11:18:20.457Z,937.4
2017-04-28T11:19:28.617Z,937.4
2017-04-28T11:20:36.576Z,937.4
2017-04-28T11:21:44.665Z,937.5
2017-04-28T11:22:52.751Z,937.5
2017-04-28T11:24:00.933Z,937.5
2017-04-28T11:25:09.041Z,937.5
2017-04-28T11:26:17.013Z,937.5
2017-04-28T11:27:25.089Z,937.6
2017-04-28T11:28:33.294Z,937.6
2017-04-28T11:29:41.263Z,937.6
2017-04-28T11:30:49.408Z,937.6
2017-04-28T11:31:57.434Z,937.6
2017-04-28T11:33:05.521Z,937.7
2017-04-28T11:34:13.780Z,937.6
2017-04-28T11:35:21.688Z,937.7
2017-04-28T11:36:29.899Z,937.7
2017-04-28T11:37:37.865Z,937.7
2017-04-28T11:38:45.945Z,937.7
2017-04-28T11:39:54.037Z,937.8
2017-04-28T11:41:02.127Z,937.8
2017-04-28T11:42:10.268Z,937.9
2017-04-28T11:43:18.301Z,937.9
2017-04-28T11:44:26.613Z,937.9
2017-04-28T11:45:34.554Z,938.0
2017-04-28T11:46:42.554Z,938.0
2017-04-28T11:47:50.755Z,938.0
2017-04-28T11:48:58.726Z,938.0
2017-04-28T11:50:07.029Z,938.0
2017-04-28T11:51:14.889Z,938.1
2017-04-28T11:52:23.210Z,938.0
2017-04-28T11:53:31.277Z,938.1
2017-04-28T11:54:39.152Z,938.1
2017-04-28T11:55:47.231Z,938.1
2017-04-28T11:56:55.478Z,938.1
2017-04-28T11:58:03.408Z,938.1
2017-04-28T11:59:11.611Z,938.2
2017-04-28T12:00:19.634Z,938.2
2017-04-28T12:01:27.663Z,938.2
2017-04-28T12:02:35.744Z,938.2
2017-04-28T12:03:43.920Z,938.2
2017-04-28T12:04:52.041Z,938.2
2017-04-28T12:06:00.065Z,938.3
2017-04-28T12:07:08.163Z,938.3
2017-04-28T12:08:16.187Z,938.4
2017-04-28T12:09:24.265Z,938.3
2017-04-28T12:10:32.407Z,938.4
2017-04-28T12:11:40.433Z,938.4
2017-04-28T12:12:48.521Z,938.4
2017-04-28T12:13:56.610Z,938.4
2017-04-28T12:15:04.698Z,938.4
2017-04-28T12:16:12.839Z,938.4
2017-04-28T12:17:20.941Z,938.4
2017-04-28T12:18:28.955Z,938.4
2017-04-28T12:19:37.038Z,938.4
2017-04-28T12:20:45.129Z,938.4
2017-04-28T12:21:53.271Z,938.4
2017-04-28T12:23:01.303Z,938.5
2017-04-28T12:24:09.388Z,938.4
2017-04-28T12:25:17.478Z,938.4
2017-04-28T12:26:25.558Z,938.5
2017-04-28T12:27:33.888Z,938.5
2017-04-28T12:28:41.840Z,938.5
2017-04-28T12:29:49.820Z,938.5
2017-04-28T12:30:57.901Z,938.5
2017-04-28T12:32:06.049Z,938.5
2017-04-28T12:33:14.130Z,938.5
2017-04-28T12:34:22.156Z,938.5
2017-04-28T12:35:30.242Z,938.5
2017-04-28T12:36:38.333Z,938.5
2017-04-28T12:37:46.415Z,938.5
2017-04-28T12:38:54.632Z,938.5
2017-04-28T12:40:02.590Z,938.5
2017-04-28T12:41:10.678Z,938.5
2017-04-28T12:42:18.767Z,938.6
2017-04-28T12:43:26.852Z,938.6
2017-04-28T12:44:35.059Z,938.6
2017-04-28T12:45:43.021Z,938.6
2017-04-28T12:46:51.633Z,938.6
2017-04-28T12:47:59.251Z,938.6
2017-04-28T12:49:07.463Z,938.6
2017-04-28T12:50:15.484Z,938.6
2017-04-28T12:51:23.451Z,938.7
2017-04-28T12:52:31.543Z,938.7
2017-04-28T12:53:39.627Z,938.7
2017-04-28T12:54:47.854Z,938.7
2017-04-28T12:55:55.851Z,938.7
2017-04-28T12:57:03.881Z,938.7
2017-04-28T12:58:11.965Z,938.7
2017-04-28T12:59:20.194Z,938.7
2017-04-28T13:00:28.138Z,938.8
2017-04-28T13:01:36.340Z,938.8
2017-04-28T13:02:44.307Z,938.8
2017-04-28T13:03:52.515Z,938.9
2017-04-28T13:05:00.545Z,938.9
2017-04-28T13:06:09.199Z,938.9
2017-04-28T13:07:16.708Z,938.9
2017-04-28T13:08:24.746Z,939.0
2017-04-28T13:09:33.018Z,939.0
2017-04-28T13:10:41.075Z,939.0
2017-04-28T13:11:48.993Z,939.0
2017-04-28T13:12:57.138Z,939.0
2017-04-28T13:14:05.163Z,939.1
2017-04-28T13:15:13.265Z,939.1
2017-04-28T13:16:21.343Z,939.1
2017-04-28T13:17:29.424Z,939.1
2017-04-28T13:18:37.631Z,939.1
2017-04-28T13:19:45.714Z,939.1
2017-04-28T13:20:53.715Z,939.1
2017-04-28T13:22:01.793Z,939.1
2017-04-28T13:23:09.857Z,939.0
2017-04-28T13:24:18.065Z,939.1
2017-04-28T13:25:26.024Z,939.0
2017-04-28T13:26:34.251Z,939.0
2017-04-28T13:27:42.263Z,939.0
2017-04-28T13:28:50.283Z,939.0
2017-04-28T13:29:58.484Z,939.0
2017-04-28T13:31:06.458Z,938.9
2017-04-28T13:32:14.544Z,938.9
2017-04-28T13:33:22.651Z,938.9
2017-04-28T13:34:31.068Z,938.9
2017-04-28T13:35:38.925Z,938.9
2017-04-28T13:36:46.887Z,938.9
2017-04-28T13:37:55.226Z,938.9
2017-04-28T13:39:03.058Z,938.8
2017-04-28T13:40:11.293Z,938.8
2017-04-28T13:41:19.336Z,938.8
2017-04-28T13:42:27.324Z,938.8
2017-04-28T13:43:35.499Z,938.9
2017-04-28T13:44:43.505Z,938.8
2017-04-28T13:45:51.581Z,938.8
2017-04-28T13:46:59.791Z,938.8
2017-04-28T13:48:07.901Z,938.8
2017-04-28T13:49:16.104Z,938.8
2017-04-28T13:50:23.921Z,938.8
2017-04-28T13:51:32.062Z,938.8
2017-04-28T13:52:40.301Z,938.8
2017-04-28T13:53:48.171Z,938.8
2017-04-28T13:54:56.315Z,938.8
2017-04-28T13:56:04.385Z,938.8
2017-04-28T13:57:12.433Z,938.8
2017-04-28T13:58:20.640Z,938.8
2017-04-28T13:59:28.697Z,938.8
2017-04-28T14:00:36.693Z,938.8
2017-04-28T14:01:44.773Z,938.8
2017-04-28T14:02:52.871Z,938.8
2017-04-28T14:04:01.066Z,938.8
2017-04-28T14:05:09.028Z,938.8
2017-04-28T14:06:17.118Z,938.9
2017-04-28T14:07:25.334Z,938.9
2017-04-28T14:08:33.299Z,938.9
2017-04-28T14:09:41.519Z,938.8
2017-04-28T14:10:49.538Z,938.9
2017-04-28T14:11:57.556Z,938.9
2017-04-28T14:13:05.641Z,938.9
2017-04-28T14:14:13.730Z,939.0
2017-04-28T14:15:22.050Z,939.0
2017-04-28T14:16:29.901Z,939.0
2017-04-28T14:17:37.985Z,938.9
2017-04-28T14:18:46.077Z,939.0
2017-04-28T14:19:54.253Z,939.0
2017-04-28T14:21:02.363Z,939.0
2017-04-28T14:22:10.330Z,939.0
2017-04-28T14:23:18.534Z,939.0
2017-04-28T14:24:26.499Z,939.0
2017-04-28T14:25:34.688Z,939.0
2017-04-28T14:26:42.816Z,939.0
2017-04-28T14:27:50.760Z,939.0
2017-04-28T14:28:58.839Z,939.0
2017-04-28T14:30:06.927Z,939.0
2017-04-28T14:31:15.016Z,939.0
2017-04-28T14:32:23.226Z,939.0
2017-04-28T14:33:31.186Z,939.0
2017-04-28T14:34:39.276Z,939.0
2017-04-28T14:35:47.363Z,939.0
2017-04-28T14:36:55.548Z,939.0